Time;durP1;ratioP1;P1;durP2;ratioP2;P2;SDS_P1;SDS_P2;PMS_P1;PMS_P2;Temp;Humidity;BMP_temperature;BMP_pressure;BME280_temperature;BME280_humidity;BME280_pressure;Samples;Min_cycle;Max_cycle;Signal;HPM_P1;HPM_P2
2022/06/20 03:01:37;;;;;;;15.43;2.65;;;12.30;99.90;;;;;;6228987;22;20016;-81
2022/06/20 03:08:52;;;;;;;6.18;2.17;;;12.30;99.90;;;;;;6154658;23;20044;-81
2022/06/20 03:11:59;;;;;;;5.70;2.22;;;12.30;99.90;;;;;;6228595;22;20030;-82
2022/06/20 03:18:33;;;;;;;;;;;;;;;;;;;;;
2022/06/20 03:21:12;;;;;;;6.40;2.10;;;12.10;99.90;;;;;;6176839;23;20047;-81
2022/06/20 03:23:57;;;;;;;;;;;;;;;;;;;;;
2022/06/20 03:27:15;;;;;;;;;;;;;;;;;;;;;
2022/06/20 03:34:17;;;;;;;;;;;;;;;;;;;;;
2022/06/20 03:37:55;;;;;;;;;;;;;;;;;;;;;
2022/06/20 03:44:46;;;;;;;10.52;2.50;;;12.10;99.90;;;;;;6098104;23;20583;-82
2022/06/20 03:48:14;;;;;;;;;;;;;;;;;;;;;
2022/06/20 03:57:23;;;;;;;;;;;;;;;;;;;;;
2022/06/20 04:44:18;;;;;;;10.27;2.92;;;11.90;99.90;;;;;;6010682;23;20075;-83
2022/06/20 05:02:36;;;;;;;12.30;2.92;;;12.10;99.90;;;;;;5926722;24;20028;-81
2022/06/20 05:05:24;;;;;;;10.70;3.05;;;12.10;99.90;;;;;;5950133;23;20017;-81
2022/06/20 05:07:51;;;;;;;10.82;4.07;;;12.20;99.90;;;;;;5950331;24;20464;-82
2022/06/20 05:10:23;;;;;;;14.10;3.20;;;12.20;99.90;;;;;;6085580;23;20019;-83
2022/06/20 05:12:55;;;;;;;10.02;3.53;;;12.30;99.90;;;;;;6122598;23;20319;-81
2022/06/20 05:15:38;;;;;;;9.25;3.10;;;12.30;99.90;;;;;;6167254;23;20314;-82
2022/06/20 05:18:13;;;;;;;14.18;3.60;;;12.30;99.90;;;;;;6167529;23;20040;-81
2022/06/20 05:20:42;;;;;;;13.13;3.40;;;12.40;99.90;;;;;;6210076;23;20020;-82
2022/06/20 05:23:12;;;;;;;7.13;3.05;;;12.50;99.90;;;;;;6166232;23;20009;-82
2022/06/20 05:25:39;;;;;;;10.85;3.55;;;12.50;99.90;;;;;;6190589;23;20142;-80
2022/06/20 05:28:12;;;;;;;10.20;3.47;;;12.60;99.90;;;;;;6167105;23;20012;-79
2022/06/20 05:30:41;;;;;;;12.65;3.70;;;12.70;99.90;;;;;;6191239;23;20096;-78
2022/06/20 05:33:09;;;;;;;12.00;3.58;;;12.80;99.90;;;;;;6167028;23;20298;-81
2022/06/20 05:35:58;;;;;;;17.92;4.38;;;12.80;99.90;;;;;;6191261;23;20095;-82
2022/06/20 05:38:48;;;;;;;8.68;3.20;;;12.90;99.90;;;;;;6166018;23;20454;-81
2022/06/20 05:41:16;;;;;;;12.65;3.67;;;12.90;99.90;;;;;;6190381;23;20016;-81
2022/06/20 05:52:46;;;;;;;;;;;;;;;;;;;;;
2022/06/20 06:06:56;;;;;;;12.90;4.03;;;13.40;99.90;;;;;;6260338;23;20322;-82
2022/06/20 06:10:03;;;;;;;12.43;3.70;;;13.60;99.90;;;;;;6263507;23;20035;-78
2022/06/20 06:12:54;;;;;;;16.58;3.60;;;13.70;99.90;;;;;;6253070;22;20013;-79
2022/06/20 06:24:02;;;;;;;;;;;;;;;;;;;;;
2022/06/20 06:35:10;;;;;;;13.38;3.00;;;14.20;99.90;;;;;;6087882;23;20025;-79
2022/06/20 06:44:10;;;;;;;;;;;14.50;99.90;;;;;;6246765;22;20047;-81
2022/06/20 06:54:00;;;;;;;;;;;;;;;;;;;;;
2022/06/20 06:57:06;;;;;;;17.67;2.70;;;14.80;99.90;;;;;;6071545;23;20386;-82
2022/06/20 07:00:03;;;;;;;11.05;3.42;;;14.90;99.90;;;;;;6009596;23;20023;-82
2022/06/20 07:22:07;;;;;;;10.35;2.95;;;15.30;99.90;;;;;;5070617;28;20443;-83
2022/06/20 07:29:45;;;;;;;;;;;;;;;;;;;;;
2022/06/20 07:40:23;;;;;;;8.18;2.40;;;15.50;99.90;;;;;;5012641;28;20089;-81
2022/06/20 07:43:34;;;;;;;11.63;2.83;;;15.60;99.90;;;;;;4996989;28;20113;-82
2022/06/20 07:50:14;;;;;;;8.30;2.10;;;15.90;99.90;;;;;;4950489;28;20043;-80
2022/06/20 07:53:06;;;;;;;7.72;2.10;;;16.10;99.90;;;;;;4935733;29;20054;-83
2022/06/20 07:55:34;;;;;;;9.80;2.20;;;16.10;99.90;;;;;;5001901;28;20050;-83
2022/06/20 07:58:41;;;;;;;11.27;2.47;;;16.00;99.90;;;;;;4995306;28;20069;-80
2022/06/20 08:01:20;;;;;;;9.00;2.35;;;16.00;99.90;;;;;;5012257;28;20107;-81
2022/06/20 08:07:57;;;;;;;12.95;2.35;;;15.90;99.90;;;;;;4988777;28;20496;-82
2022/06/20 08:10:51;;;;;;;;;;;;;;;;;;;;;
2022/06/20 08:13:49;;;;;;;9.85;2.03;;;16.00;99.90;;;;;;4963972;28;20046;-80
2022/06/20 08:16:38;;;;;;;6.10;2.22;;;16.20;99.90;;;;;;4975930;28;20503;-82
2022/06/20 08:19:43;;;;;;;;;;;;;;;;;;;;;
2022/06/20 08:22:59;;;;;;;4.47;1.50;;;16.30;99.90;;;;;;4937303;29;20066;-83
2022/06/20 08:25:42;;;;;;;;;;;;;;;;;;;;;
2022/06/20 08:29:11;;;;;;;4.65;1.42;;;16.30;99.90;;;;;;4937457;29;20122;-82
2022/06/20 08:32:18;;;;;;;;;;;;;;;;;;;;;
2022/06/20 08:35:16;;;;;;;7.35;1.67;;;16.60;99.90;;;;;;4995200;28;20162;-82
2022/06/20 08:37:50;;;;;;;5.50;1.60;;;16.40;99.90;;;;;;4995301;28;20147;-83
2022/06/20 08:40:40;;;;;;;7.05;1.90;;;16.30;99.90;;;;;;4996076;28;20127;-81
2022/06/20 08:43:43;;;;;;;11.02;2.78;;;16.30;99.90;;;;;;5056923;28;20041;-82
2022/06/20 08:46:32;;;;;;;5.25;1.50;;;16.40;99.90;;;;;;5038830;28;20041;-82
2022/06/20 08:49:28;;;;;;;6.30;1.58;;;16.40;99.90;;;;;;5039371;28;20033;-82
2022/06/20 08:52:32;;;;;;;3.97;1.42;;;16.40;99.90;;;;;;5055004;28;20408;-82
2022/06/20 08:55:15;;;;;;;6.28;1.85;;;16.40;99.90;;;;;;5039185;28;20025;-83
2022/06/20 08:57:50;;;;;;;6.03;1.60;;;16.40;99.90;;;;;;5056336;28;20044;-85
2022/06/20 09:00:39;;;;;;;4.90;1.75;;;16.40;99.90;;;;;;5056269;28;20047;-81
2022/06/20 09:03:24;;;;;;;3.65;1.70;;;16.50;99.90;;;;;;5056622;28;20048;-81
2022/06/20 09:06:09;;;;;;;5.28;1.73;;;16.70;99.90;;;;;;5039207;28;20079;-81
2022/06/20 09:09:02;;;;;;;;;;;16.90;99.90;;;;;;5038865;28;20508;-82
2022/06/20 09:11:43;;;;;;;4.10;1.48;;;17.00;99.90;;;;;;5056170;28;19986;-81
2022/06/20 09:14:32;;;;;;;5.70;1.70;;;17.00;99.90;;;;;;5038564;28;20131;-81
2022/06/20 09:17:22;;;;;;;9.82;2.00;;;16.90;99.90;;;;;;5039177;28;20041;-82
2022/06/20 09:20:25;;;;;;;7.53;1.80;;;16.80;99.90;;;;;;5038412;28;20044;-81
2022/06/20 09:23:25;;;;;;;7.32;1.45;;;17.00;99.90;;;;;;5054137;28;20048;-82
2022/06/20 09:26:09;;;;;;;8.57;1.60;;;17.20;99.90;;;;;;5053475;28;20044;-82
2022/06/20 09:28:47;;;;;;;5.80;1.98;;;17.50;99.90;;;;;;5038475;28;20036;-82
2022/06/20 09:31:31;;;;;;;7.32;1.80;;;17.50;99.90;;;;;;5055577;28;20044;-81
2022/06/20 09:34:02;;;;;;;5.00;1.60;;;17.40;99.90;;;;;;5038185;28;20073;-82
2022/06/20 09:36:46;;;;;;;5.90;1.85;;;17.30;99.90;;;;;;5038309;28;20118;-81
2022/06/20 09:39:17;;;;;;;8.98;1.90;;;17.30;99.90;;;;;;5037433;28;20036;-83
2022/06/20 09:41:57;;;;;;;7.95;1.73;;;17.30;99.90;;;;;;5054331;28;20045;-82
2022/06/20 09:44:47;;;;;;;11.23;3.13;;;17.30;99.90;;;;;;5037965;28;20075;-79
2022/06/20 09:47:24;;;;;;;10.80;2.28;;;17.40;99.90;;;;;;5053703;28;20041;-80
2022/06/20 09:50:28;;;;;;;9.65;2.13;;;17.40;99.90;;;;;;5055210;28;20033;-82
2022/06/20 09:53:06;;;;;;;10.65;2.42;;;17.20;99.90;;;;;;4985911;28;20076;-81
2022/06/20 09:55:58;;;;;;;9.95;1.92;;;17.00;99.90;;;;;;5037347;28;20124;-82
2022/06/20 09:58:43;;;;;;;11.88;1.90;;;16.80;99.90;;;;;;5037513;28;20045;-82
2022/06/20 10:01:44;;;;;;;7.82;2.13;;;17.10;99.90;;;;;;5053683;28;20052;-80
2022/06/20 10:04:18;;;;;;;5.70;1.30;;;17.20;99.90;;;;;;4985442;28;20529;-81
2022/06/20 10:06:59;;;;;;;4.68;1.58;;;17.50;99.90;;;;;;5053569;28;20481;-79
2022/06/20 10:09:54;;;;;;;7.82;1.73;;;17.40;99.90;;;;;;5037088;28;20135;-82
2022/06/20 10:12:31;;;;;;;7.00;1.95;;;17.30;99.90;;;;;;5054803;28;20041;-81
2022/06/20 10:15:04;;;;;;;10.15;1.90;;;17.40;99.90;;;;;;5036720;28;20080;-81
2022/06/20 10:17:59;;;;;;;9.10;2.35;;;17.70;99.90;;;;;;5037314;28;20052;-82
2022/06/20 10:20:44;;;;;;;11.18;2.65;;;18.00;99.90;;;;;;5036772;28;20484;-82
2022/06/20 10:23:48;;;;;;;8.75;1.85;;;18.10;99.90;;;;;;5053025;28;20053;-82
2022/06/20 10:26:58;;;;;;;6.22;1.70;;;18.30;99.90;;;;;;5037299;28;20044;-78
2022/06/20 10:29:30;;;;;;;7.68;1.65;;;18.50;99.90;;;;;;5055116;28;20037;-81
2022/06/20 10:32:24;;;;;;;7.43;1.80;;;18.50;99.90;;;;;;5053472;28;20080;-82
2022/06/20 10:35:08;;;;;;;10.63;2.72;;;18.30;99.90;;;;;;5052986;28;20438;-80
2022/06/20 10:37:44;;;;;;;6.75;2.05;;;18.00;99.90;;;;;;5053181;28;20123;-80
2022/06/20 10:40:32;;;;;;;7.68;2.35;;;17.90;99.90;;;;;;5053056;28;20091;-81
2022/06/20 10:42:57;;;;;;;11.65;1.95;;;17.60;99.90;;;;;;5053198;28;20045;-82
2022/06/20 10:45:43;;;;;;;7.03;2.05;;;17.50;99.90;;;;;;5036521;28;20099;-81
2022/06/20 10:48:08;;;;;;;;;;;17.50;99.90;;;;;;5037033;28;20040;-82
2022/06/20 10:50:50;;;;;;;8.07;2.10;;;17.90;99.90;;;;;;5053325;28;20008;-81
2022/06/20 10:53:23;;;;;;;7.40;1.90;;;18.10;99.90;;;;;;5054918;28;20120;-80
2022/06/20 10:56:10;;;;;;;8.02;1.85;;;18.20;99.90;;;;;;5053143;28;20049;-80
2022/06/20 10:58:47;;;;;;;6.30;1.95;;;18.30;99.90;;;;;;5053294;28;20127;-82
2022/06/20 11:01:30;;;;;;;12.07;2.95;;;18.10;99.90;;;;;;5054410;28;20063;-81
2022/06/20 11:04:08;;;;;;;6.85;1.65;;;18.00;99.90;;;;;;5053710;28;20380;-81
2022/06/20 11:06:39;;;;;;;6.28;1.98;;;17.80;99.90;;;;;;5036705;28;20037;-86
2022/06/20 11:09:18;;;;;;;9.20;2.25;;;17.90;99.90;;;;;;5054543;28;20037;-82
2022/06/20 11:11:56;;;;;;;7.93;2.28;;;18.30;99.90;;;;;;5036307;28;20045;-81
2022/06/20 11:14:46;;;;;;;8.88;2.13;;;18.60;99.90;;;;;;5036081;28;20079;-81
2022/06/20 11:17:36;;;;;;;7.07;2.13;;;18.60;99.90;;;;;;5053185;28;20397;-82
2022/06/20 11:20:38;;;;;;;11.20;2.40;;;18.50;99.90;;;;;;5052887;28;20041;-81
2022/06/20 11:23:33;;;;;;;5.07;2.10;;;18.40;99.90;;;;;;5052844;28;20485;-82
2022/06/20 11:26:10;;;;;;;9.27;2.35;;;18.60;99.90;;;;;;5054284;28;20183;-81
2022/06/20 11:29:01;;;;;;;7.53;2.10;;;18.40;99.90;;;;;;5054058;28;20045;-81
2022/06/20 11:31:52;;;;;;;5.72;1.70;;;18.30;99.90;;;;;;5052911;28;20055;-81
2022/06/20 11:34:36;;;;;;;7.32;1.85;;;18.30;99.90;;;;;;5036197;28;20552;-82
2022/06/20 11:37:28;;;;;;;5.95;1.80;;;18.10;99.90;;;;;;5052842;28;20064;-81
2022/06/20 11:40:02;;;;;;;9.25;2.10;;;18.00;99.90;;;;;;5054029;28;20033;-81
2022/06/20 11:42:45;;;;;;;11.57;1.92;;;17.90;99.90;;;;;;5052813;28;20417;-80
2022/06/20 11:45:41;;;;;;;7.70;1.75;;;17.90;99.90;;;;;;5052955;28;20540;-81
2022/06/20 11:48:22;;;;;;;8.18;1.85;;;17.90;99.90;;;;;;5054047;28;20080;-82
2022/06/20 11:50:53;;;;;;;5.72;1.60;;;17.90;99.90;;;;;;5057383;28;20041;-80
2022/06/20 11:53:43;;;;;;;4.82;1.48;;;17.80;99.90;;;;;;5039204;28;20041;-81
2022/06/20 11:56:33;;;;;;;5.57;1.30;;;18.00;99.90;;;;;;5057470;28;20519;-82
2022/06/20 11:59:17;;;;;;;7.53;1.90;;;18.00;99.90;;;;;;5056483;28;20333;-82
2022/06/20 12:01:51;;;;;;;4.95;2.03;;;18.00;99.90;;;;;;5039410;28;20037;-82
2022/06/20 12:04:39;;;;;;;3.72;1.70;;;18.10;99.90;;;;;;5040030;28;20068;-82
2022/06/20 12:07:27;;;;;;;5.57;1.67;;;18.20;99.90;;;;;;5039220;28;20048;-80
2022/06/20 12:10:07;;;;;;;7.40;1.80;;;17.90;99.90;;;;;;5055834;28;20112;-82
2022/06/20 12:12:43;;;;;;;5.03;2.00;;;18.00;99.90;;;;;;5056232;28;20064;-80
2022/06/20 12:15:26;;;;;;;7.13;2.30;;;18.10;99.90;;;;;;5040304;28;20041;-80
2022/06/20 12:18:16;;;;;;;6.78;1.90;;;18.40;99.90;;;;;;5039201;28;20052;-80
2022/06/20 12:23:33;;;;;;;6.47;2.13;;;19.20;99.90;;;;;;5057204;28;20051;-78
2022/06/20 12:26:14;;;;;;;8.10;1.75;;;19.10;99.90;;;;;;5057709;28;20037;-81
2022/06/20 12:28:45;;;;;;;3.30;1.75;;;18.90;99.90;;;;;;5057161;28;20083;-82
2022/06/20 12:31:13;;;;;;;4.53;1.70;;;18.70;99.90;;;;;;5056858;28;20040;-81
2022/06/20 12:33:50;;;;;;;5.13;1.85;;;18.80;99.90;;;;;;5057026;28;20059;-82
2022/06/20 12:36:35;;;;;;;6.07;1.88;;;18.80;99.90;;;;;;5056629;28;20037;-83
2022/06/20 12:39:19;;;;;;;7.82;2.38;;;18.80;99.90;;;;;;5058301;28;20389;-81
2022/06/20 12:41:55;;;;;;;5.90;1.90;;;18.60;99.90;;;;;;5056488;28;20076;-82
2022/06/20 12:45:00;;;;;;;7.03;1.95;;;18.30;99.90;;;;;;5058009;28;20044;-80
2022/06/20 12:47:51;;;;;;;3.97;1.50;;;18.20;99.90;;;;;;5040898;28;20045;-80
2022/06/20 12:50:23;;;;;;;5.85;1.58;;;18.10;99.90;;;;;;5073602;28;20041;-78
2022/06/20 12:53:12;;;;;;;5.32;1.70;;;18.20;99.90;;;;;;5046717;28;20072;-79
2022/06/20 12:55:57;;;;;;;6.43;1.50;;;18.60;99.90;;;;;;5059149;28;20370;-81
2022/06/20 12:58:37;;;;;;;4.57;1.70;;;19.00;99.90;;;;;;5058998;28;20440;-80
2022/06/20 13:01:09;;;;;;;5.32;1.95;;;19.10;99.90;;;;;;5055668;28;20124;-80
2022/06/20 13:04:16;;;;;;;6.82;1.75;;;19.10;99.90;;;;;;5056977;28;20036;-80
2022/06/20 13:06:48;;;;;;;5.03;1.83;;;19.30;99.90;;;;;;5038477;28;20033;-80
2022/06/20 13:09:32;;;;;;;4.93;1.58;;;19.40;99.90;;;;;;5056226;28;20040;-82
2022/06/20 13:12:25;;;;;;;5.18;1.70;;;19.60;99.90;;;;;;5057369;28;20435;-76
2022/06/20 13:15:16;;;;;;;5.50;1.65;;;19.50;99.90;;;;;;5056664;28;20414;-80
2022/06/20 13:17:51;;;;;;;4.47;1.80;;;19.30;99.90;;;;;;5054709;28;20040;-80
2022/06/20 13:20:16;;;;;;;6.03;1.52;;;19.60;99.90;;;;;;5038082;28;20592;-80
2022/06/20 13:22:52;;;;;;;6.07;1.73;;;19.80;99.90;;;;;;5056093;28;20124;-77
2022/06/20 13:25:35;;;;;;;3.50;1.42;;;19.70;99.90;;;;;;5056217;28;20493;-81
2022/06/20 13:28:06;;;;;;;3.85;1.70;;;19.60;99.90;;;;;;5055732;28;20419;-80
2022/06/20 13:30:43;;;;;;;4.30;1.80;;;19.30;99.90;;;;;;5054800;28;20075;-81
2022/06/20 13:33:57;;;;;;;8.57;2.22;;;19.20;99.90;;;;;;5054453;28;20614;-80
2022/06/20 13:37:09;;;;;;;8.48;2.25;;;18.90;99.90;;;;;;5048859;28;20049;-78
2022/06/20 13:39:57;;;;;;;8.82;2.30;;;18.70;99.90;;;;;;5041385;28;20055;-79
2022/06/20 13:42:37;;;;;;;5.82;2.10;;;18.90;99.90;;;;;;5055066;28;20124;-81
2022/06/20 13:45:09;;;;;;;5.00;2.05;;;19.00;99.90;;;;;;5055517;28;20033;-80
2022/06/20 13:47:46;;;;;;;6.35;1.80;;;19.20;99.90;;;;;;5055625;28;20045;-79
2022/06/20 13:50:19;;;;;;;4.55;1.80;;;19.60;99.90;;;;;;5053957;28;20119;-78
2022/06/20 13:53:09;;;;;;;5.15;1.70;;;19.80;99.90;;;;;;5054286;28;20041;-81
2022/06/20 13:56:12;;;;;;;3.95;1.20;;;20.00;99.90;;;;;;5054118;28;20087;-81
2022/06/20 13:58:48;;;;;;;4.38;1.70;;;20.10;99.90;;;;;;5054070;28;20068;-82
2022/06/20 14:01:17;;;;;;;6.88;2.17;;;20.00;99.90;;;;;;5037086;28;20074;-79
2022/06/20 14:03:52;;;;;;;4.13;1.80;;;19.60;99.90;;;;;;5054023;28;20045;-79
2022/06/20 14:06:21;;;;;;;;;;;19.50;99.90;;;;;;5055772;28;20393;-80
2022/06/20 14:08:53;;;;;;;7.40;1.77;;;19.50;99.90;;;;;;5055224;28;19924;-80
2022/06/20 14:11:40;;;;;;;6.68;1.75;;;19.60;99.90;;;;;;5054730;28;20049;-80
2022/06/20 14:14:22;;;;;;;4.85;1.50;;;19.40;99.90;;;;;;5054926;28;20041;-82
2022/06/20 14:16:55;;;;;;;5.28;1.70;;;19.70;99.90;;;;;;5055219;28;20045;-78
2022/06/20 14:19:26;;;;;;;6.95;1.70;;;19.90;99.90;;;;;;5054964;28;20425;-80
2022/06/20 14:21:58;;;;;;;5.10;1.85;;;20.00;99.90;;;;;;5054756;28;20041;-82
2022/06/20 14:24:33;;;;;;;6.00;2.15;;;20.20;99.90;;;;;;5055056;28;20033;-81
2022/06/20 14:27:04;;;;;;;4.85;1.70;;;20.20;99.90;;;;;;5054769;28;20082;-81
2022/06/20 14:29:36;;;;;;;6.28;1.58;;;20.40;99.90;;;;;;5053124;28;20037;-79
2022/06/20 14:32:14;;;;;;;3.90;1.58;;;20.40;99.90;;;;;;5053519;28;20041;-80
2022/06/20 14:38:13;;;;;;;4.90;1.55;;;20.20;99.90;;;;;;5053854;28;20064;-80
2022/06/20 14:41:02;;;;;;;7.28;1.30;;;20.30;99.90;;;;;;5053704;28;20044;-80
2022/06/20 14:43:41;;;;;;;5.95;1.77;;;20.30;99.90;;;;;;5055121;28;20045;-81
2022/06/20 14:46:35;;;;;;;7.50;1.95;;;20.50;99.90;;;;;;5054696;28;20033;-83
2022/06/20 14:49:15;;;;;;;6.25;1.88;;;20.40;99.90;;;;;;5053773;28;20464;-79
2022/06/20 14:52:05;;;;;;;6.90;2.05;;;20.20;99.90;;;;;;5052874;28;20075;-80
2022/06/20 14:54:39;;;;;;;5.95;1.83;;;20.10;99.90;;;;;;5052918;28;20041;-80
2022/06/20 14:57:13;;;;;;;5.03;1.60;;;20.20;99.90;;;;;;5053587;28;20045;-82
2022/06/20 14:59:55;;;;;;;8.65;2.20;;;20.20;99.90;;;;;;5055097;28;20136;-81
2022/06/20 15:02:28;;;;;;;5.80;1.70;;;20.20;99.90;;;;;;5052787;28;20059;-84
2022/06/20 15:05:25;;;;;;;5.97;1.83;;;19.80;99.90;;;;;;5036791;28;20527;-81
2022/06/20 15:08:16;;;;;;;4.68;1.92;;;19.80;99.90;;;;;;5054623;28;20119;-81
2022/06/20 15:10:57;;;;;;;9.20;1.80;;;20.00;99.90;;;;;;5052982;28;20062;-80
2022/06/20 15:13:46;;;;;;;5.05;1.48;;;20.30;99.90;;;;;;5053237;28;20128;-81
2022/06/20 15:16:26;;;;;;;5.75;1.85;;;20.30;99.90;;;;;;5052882;28;20037;-81
2022/06/20 15:19:20;;;;;;;4.88;1.70;;;20.10;99.90;;;;;;5054333;28;20480;-80
2022/06/20 15:21:58;;;;;;;5.68;1.40;;;19.90;99.90;;;;;;5052338;28;20091;-81
2022/06/20 15:24:51;;;;;;;4.57;1.70;;;19.90;99.90;;;;;;5056713;28;20094;-82
2022/06/20 15:27:38;;;;;;;5.32;1.40;;;20.10;99.90;;;;;;5058466;28;20108;-81
2022/06/20 15:30:12;;;;;;;3.63;1.20;;;20.20;99.90;;;;;;5056800;28;20056;-81
2022/06/20 15:32:39;;;;;;;3.67;1.25;;;20.30;99.90;;;;;;5057993;28;20036;-83
2022/06/20 15:38:25;;;;;;;4.18;1.35;;;20.70;99.90;;;;;;5058649;28;20075;-80
2022/06/20 15:41:09;;;;;;;5.63;1.50;;;20.80;99.90;;;;;;5056617;28;20132;-79
2022/06/20 15:43:43;;;;;;;4.82;1.42;;;21.00;99.90;;;;;;5056151;28;20124;-80
2022/06/20 15:46:32;;;;;;;4.38;1.65;;;20.80;99.90;;;;;;5051422;28;20080;-80
2022/06/20 15:49:27;;;;;;;10.90;1.90;;;20.40;99.90;;;;;;5047761;28;20127;-81
2022/06/20 15:52:42;;;;;;;7.63;1.80;;;19.90;99.90;;;;;;5057095;28;20041;-81
2022/06/20 15:55:29;;;;;;;9.52;1.90;;;19.60;99.90;;;;;;5054863;28;20037;-82
2022/06/20 15:58:25;;;;;;;6.85;1.70;;;19.40;99.90;;;;;;5052873;28;20040;-80
2022/06/20 16:01:18;;;;;;;;;;;19.30;99.90;;;;;;5056950;28;20045;-81
2022/06/20 16:04:03;;;;;;;4.63;1.85;;;19.10;99.90;;;;;;5057336;28;19927;-81
2022/06/20 16:06:38;;;;;;;;;;;19.00;99.90;;;;;;5058227;28;20048;-79
2022/06/20 16:09:33;;;;;;;4.38;1.73;;;18.90;99.90;;;;;;5057549;28;19923;-79
2022/06/20 16:12:08;;;;;;;7.10;2.08;;;19.00;99.90;;;;;;5044072;28;20495;-80
2022/06/20 16:14:44;;;;;;;10.77;2.30;;;19.20;99.90;;;;;;5052851;28;20037;-79
2022/06/20 16:17:10;;;;;;;9.63;2.28;;;19.30;99.90;;;;;;5038933;28;20045;-80
2022/06/20 16:19:41;;;;;;;9.23;1.92;;;19.60;99.90;;;;;;5056490;28;20036;-80
2022/06/20 16:22:18;;;;;;;9.73;2.60;;;19.60;99.90;;;;;;5057116;28;20044;-81
2022/06/20 16:25:18;;;;;;;8.52;2.13;;;19.70;99.90;;;;;;5054459;28;20044;-79
2022/06/20 16:27:43;;;;;;;7.93;2.08;;;19.80;99.90;;;;;;5057114;28;20071;-80
2022/06/20 16:30:23;;;;;;;6.40;2.53;;;19.90;99.90;;;;;;5055967;28;20040;-81
2022/06/20 16:32:55;;;;;;;9.40;2.33;;;20.10;99.90;;;;;;5055627;28;20214;-80
2022/06/20 16:35:23;;;;;;;6.18;2.10;;;20.00;99.90;;;;;;5038380;28;20052;-81
2022/06/20 16:38:03;;;;;;;7.03;2.20;;;20.10;99.90;;;;;;5057408;28;20400;-80
2022/06/20 16:40:59;;;;;;;5.43;2.00;;;20.10;99.90;;;;;;5056872;28;20052;-80
2022/06/20 16:43:32;;;;;;;7.65;2.10;;;20.20;99.90;;;;;;5055581;28;20056;-81
2022/06/20 16:46:04;;;;;;;9.40;2.00;;;20.20;99.90;;;;;;5056926;28;20531;-80
2022/06/20 16:48:45;;;;;;;6.22;1.92;;;20.00;99.90;;;;;;5039260;28;20144;-80
2022/06/20 16:51:35;;;;;;;7.97;2.20;;;20.10;99.90;;;;;;5038978;28;20087;-83
2022/06/20 16:54:17;;;;;;;7.13;2.00;;;20.00;99.90;;;;;;5056733;28;20036;-80
2022/06/20 16:56:52;;;;;;;7.93;2.30;;;20.10;99.90;;;;;;5055561;28;20055;-80
2022/06/20 16:59:22;;;;;;;8.05;2.15;;;20.10;99.90;;;;;;5055151;28;20037;-79
2022/06/20 17:02:13;;;;;;;5.53;1.70;;;20.00;99.90;;;;;;5054784;28;20132;-80
2022/06/20 17:04:59;;;;;;;9.93;2.10;;;20.00;99.90;;;;;;5054811;28;20060;-80
2022/06/20 17:07:33;;;;;;;9.57;2.17;;;20.00;99.90;;;;;;5056885;28;20099;-82
2022/06/20 17:10:18;;;;;;;8.80;2.15;;;19.90;99.90;;;;;;5056293;28;20051;-81
2022/06/20 17:13:29;;;;;;;8.13;2.63;;;19.90;99.90;;;;;;5055179;28;20040;-81
2022/06/20 17:16:13;;;;;;;7.25;2.13;;;19.80;99.90;;;;;;5038265;28;20132;-81
2022/06/20 17:18:53;;;;;;;7.25;2.15;;;19.70;99.90;;;;;;5055105;28;20045;-80
2022/06/20 17:21:40;;;;;;;10.82;2.50;;;19.60;99.90;;;;;;5038206;28;20515;-80
2022/06/20 17:24:19;;;;;;;7.72;2.15;;;19.70;99.90;;;;;;5054700;28;20136;-80
2022/06/20 17:27:10;;;;;;;9.13;2.30;;;19.60;99.90;;;;;;5056137;28;20043;-80
2022/06/20 17:29:57;;;;;;;7.50;2.05;;;19.60;99.90;;;;;;5038148;28;20484;-80
2022/06/20 17:33:11;;;;;;;6.90;2.00;;;19.60;99.90;;;;;;5056027;28;20041;-81
2022/06/20 17:35:58;;;;;;;8.20;2.20;;;19.50;99.90;;;;;;4958871;28;20395;-79
2022/06/20 17:38:46;;;;;;;7.53;1.80;;;19.50;99.90;;;;;;5031830;28;20102;-79
2022/06/20 17:41:21;;;;;;;7.78;2.13;;;19.50;99.90;;;;;;5054183;28;20048;-80
2022/06/20 17:43:52;;;;;;;9.63;2.05;;;19.50;99.90;;;;;;5055636;28;20401;-80
2022/06/20 17:46:58;;;;;;;9.32;2.55;;;19.30;99.90;;;;;;5053627;28;20060;-81
2022/06/20 17:49:48;;;;;;;6.15;1.88;;;19.20;99.90;;;;;;4974624;28;20043;-80
2022/06/20 17:52:32;;;;;;;10.27;2.30;;;19.10;99.90;;;;;;5051352;28;20049;-80
2022/06/20 17:55:09;;;;;;;7.82;2.05;;;19.00;99.90;;;;;;5037439;28;20048;-79
2022/06/20 17:57:49;;;;;;;5.90;1.50;;;18.90;99.90;;;;;;5054338;28;20044;-82
2022/06/20 18:00:40;;;;;;;7.60;1.40;;;18.80;99.90;;;;;;5054004;28;20041;-82
2022/06/20 18:03:24;;;;;;;5.95;1.15;;;18.60;99.90;;;;;;5052907;28;20088;-81
2022/06/20 18:06:01;;;;;;;4.20;1.15;;;18.50;99.90;;;;;;5053871;28;20059;-80
2022/06/20 18:08:34;;;;;;;3.58;1.08;;;18.50;99.90;;;;;;5053886;28;20591;-80
2022/06/20 18:11:26;;;;;;;5.18;1.30;;;18.50;99.90;;;;;;5053490;28;20077;-81
2022/06/20 18:14:05;;;;;;;4.25;1.30;;;18.40;99.90;;;;;;5040617;28;20049;-80
2022/06/20 18:16:51;;;;;;;7.00;1.63;;;18.50;99.90;;;;;;5055214;28;20055;-81
2022/06/20 18:19:25;;;;;;;3.20;1.10;;;18.50;99.90;;;;;;5053232;28;20048;-81
2022/06/20 18:22:19;;;;;;;7.00;1.08;;;18.70;99.90;;;;;;5036430;28;20078;-82
2022/06/20 18:25:02;;;;;;;5.57;1.20;;;18.70;99.90;;;;;;5055014;28;20489;-80
2022/06/20 18:27:43;;;;;;;8.02;1.60;;;18.70;99.90;;;;;;5055050;28;20037;-81
2022/06/20 18:30:10;;;;;;;7.03;1.40;;;18.60;99.90;;;;;;5054270;28;20404;-82
2022/06/20 18:32:43;;;;;;;7.60;1.20;;;18.50;99.90;;;;;;5053419;28;20052;-80
2022/06/20 18:35:11;;;;;;;8.02;1.20;;;18.30;99.90;;;;;;5053405;28;20048;-82
2022/06/20 18:37:37;;;;;;;7.85;1.20;;;18.20;99.90;;;;;;5055067;28;20041;-80
2022/06/20 18:40:19;;;;;;;4.88;1.40;;;18.10;99.90;;;;;;5054364;28;20040;-81
2022/06/20 18:42:53;;;;;;;7.10;1.92;;;17.80;99.90;;;;;;5054722;28;20117;-81
2022/06/20 18:45:45;;;;;;;6.75;1.20;;;17.70;99.90;;;;;;5053546;28;20089;-80
2022/06/20 18:48:48;;;;;;;9.30;1.50;;;17.60;99.90;;;;;;5050969;28;20045;-81
2022/06/20 18:51:44;;;;;;;4.88;1.20;;;17.60;99.90;;;;;;5052848;28;20099;-81
2022/06/20 18:54:38;;;;;;;;;;;17.50;99.90;;;;;;5053878;28;20041;-80
2022/06/20 18:57:22;;;;;;;5.43;1.13;;;17.40;99.90;;;;;;5049966;28;19917;-80
2022/06/20 19:00:21;;;;;;;8.02;1.45;;;17.20;99.90;;;;;;5053282;28;20386;-83
2022/06/20 19:03:06;;;;;;;7.00;1.25;;;17.10;99.90;;;;;;5052812;28;20083;-82
2022/06/20 19:05:51;;;;;;;7.50;1.45;;;17.00;99.90;;;;;;5052552;28;20045;-81
2022/06/20 19:08:56;;;;;;;4.53;0.88;;;16.90;99.90;;;;;;5054134;28;20037;-79
2022/06/20 19:11:52;;;;;;;3.78;1.20;;;16.90;99.90;;;;;;5054658;28;20041;-81
2022/06/20 19:14:32;;;;;;;8.20;1.30;;;16.80;99.90;;;;;;5053054;28;20041;-81
2022/06/20 19:17:33;;;;;;;6.05;1.10;;;16.70;99.90;;;;;;5052978;28;20063;-82
2022/06/20 19:20:36;;;;;;;6.75;1.52;;;16.70;99.90;;;;;;5054169;28;20071;-81
2022/06/20 19:23:44;;;;;;;5.50;1.20;;;16.60;99.90;;;;;;5052690;28;20067;-81
2022/06/20 19:26:13;;;;;;;7.70;1.13;;;16.50;99.90;;;;;;5052420;28;20052;-81
2022/06/20 19:28:47;;;;;;;6.20;1.20;;;16.40;99.90;;;;;;5052832;28;20500;-81
2022/06/20 19:31:31;;;;;;;8.38;2.08;;;16.40;99.90;;;;;;5035778;28;20048;-81
2022/06/20 19:34:24;;;;;;;5.55;1.20;;;16.20;99.90;;;;;;5052610;28;20397;-83
2022/06/20 19:37:08;;;;;;;7.03;1.15;;;16.20;99.90;;;;;;5052704;28;20045;-80
2022/06/20 19:39:43;;;;;;;10.77;1.52;;;16.20;99.90;;;;;;5052550;28;20047;-79
2022/06/20 19:42:23;;;;;;;5.23;1.30;;;16.10;99.90;;;;;;5036054;28;20040;-82
2022/06/20 19:44:49;;;;;;;3.70;1.10;;;16.10;99.90;;;;;;5052376;28;20291;-78
2022/06/20 19:47:24;;;;;;;4.80;1.27;;;16.00;99.90;;;;;;5052589;28;20033;-82
2022/06/20 19:49:55;;;;;;;7.15;1.33;;;16.00;99.90;;;;;;5052843;28;20048;-82
2022/06/20 19:52:27;;;;;;;7.78;1.25;;;16.00;99.90;;;;;;5053369;28;20493;-79
2022/06/20 19:54:57;;;;;;;4.97;1.13;;;15.90;99.90;;;;;;5052857;28;20045;-82
2022/06/20 19:57:25;;;;;;;3.92;1.30;;;15.90;99.90;;;;;;5052351;28;20074;-81
2022/06/20 19:59:56;;;;;;;6.22;1.40;;;15.80;99.90;;;;;;5052654;28;20045;-82
2022/06/20 20:02:24;;;;;;;4.80;1.33;;;15.70;99.90;;;;;;5051930;28;20122;-79
2022/06/20 20:05:10;;;;;;;5.78;1.20;;;15.60;99.90;;;;;;5051724;28;20072;-81
2022/06/20 20:07:57;;;;;;;5.57;1.30;;;15.60;99.90;;;;;;5051577;28;20095;-79
2022/06/20 20:10:40;;;;;;;8.57;1.50;;;15.50;99.90;;;;;;5057287;28;20041;-81
2022/06/20 20:13:14;;;;;;;5.60;1.42;;;15.40;99.90;;;;;;5057211;28;20497;-80
2022/06/20 20:15:54;;;;;;;11.27;1.63;;;15.30;99.90;;;;;;5056383;28;20056;-81
2022/06/20 20:18:30;;;;;;;6.03;1.60;;;15.20;99.90;;;;;;5056952;28;20055;-78
2022/06/20 20:21:15;;;;;;;7.53;1.60;;;15.10;99.90;;;;;;5059628;28;20041;-77
2022/06/20 20:24:01;;;;;;;7.93;2.38;;;14.90;99.90;;;;;;5043998;28;20048;-80
2022/06/20 20:26:27;;;;;;;14.40;2.15;;;14.90;99.90;;;;;;5061703;28;20087;-81
2022/06/20 20:29:13;;;;;;;7.45;1.98;;;14.80;99.90;;;;;;5060087;28;20065;-75
2022/06/20 20:32:05;;;;;;;7.00;1.65;;;14.80;99.90;;;;;;5043276;28;20127;-79
2022/06/20 20:34:49;;;;;;;7.38;2.08;;;14.70;99.90;;;;;;5058654;28;20432;-78
2022/06/20 20:37:29;;;;;;;7.72;1.80;;;14.60;99.90;;;;;;5057002;28;20037;-80